Time;durP1;ratioP1;P1;durP2;ratioP2;P2;SDS_P1;SDS_P2;PMS_P1;PMS_P2;Temp;Humidity;BMP_temperature;BMP_pressure;BME280_temperature;BME280_humidity;BME280_pressure;Samples;Min_cycle;Max_cycle;Signal;HPM_P1;HPM_P2
2021/11/06 00:01:44;;;;;;;34.17;17.43;;;;;;;15.24;100.00;101949.24;1670975;84;21251;-80
2021/11/06 00:04:17;;;;;;;36.25;19.60;;;;;;;15.18;100.00;101954.48;1668459;84;21440;-81
2021/11/06 00:06:49;;;;;;;35.48;20.90;;;;;;;15.18;100.00;101957.28;1670720;83;21904;-80
2021/11/06 00:09:22;;;;;;;38.53;21.17;;;;;;;15.17;100.00;101954.20;1684817;83;21352;-78
2021/11/06 00:11:54;;;;;;;33.53;20.52;;;;;;;15.15;100.00;101947.98;1668690;83;21428;-80
2021/11/06 00:14:26;;;;;;;37.37;19.73;;;;;;;15.13;100.00;101945.16;1695203;83;21410;-78
2021/11/06 00:17:00;;;;;;;33.00;17.52;;;;;;;15.11;100.00;101948.23;1700022;83;21707;-74
2021/11/06 00:19:33;;;;;;;30.68;18.60;;;;;;;15.08;100.00;101947.34;1703850;83;21757;-79
2021/11/06 00:22:06;;;;;;;35.70;18.35;;;;;;;15.09;100.00;101946.80;1702570;82;21337;-80
2021/11/06 00:24:40;;;;;;;33.70;17.70;;;;;;;15.09;100.00;101949.03;1698765;82;21276;-80
2021/11/06 00:27:13;;;;;;;34.10;18.48;;;;;;;15.11;100.00;101952.97;1694029;82;21395;-81
2021/11/06 00:29:45;;;;;;;40.43;21.15;;;;;;;15.10;100.00;101949.89;1680925;82;21849;-77
2021/11/06 00:32:18;;;;;;;36.13;18.42;;;;;;;15.12;100.00;101956.92;1707431;82;21708;-80
2021/11/06 00:34:51;;;;;;;37.40;19.07;;;;;;;15.13;100.00;101963.34;1717363;82;21319;-80
2021/11/06 00:37:24;;;;;;;33.08;17.92;;;;;;;15.12;100.00;101965.31;1681986;83;21434;-80
2021/11/06 00:39:56;;;;;;;33.63;18.20;;;;;;;15.14;100.00;101971.48;1688046;83;21187;-81
2021/11/06 00:42:28;;;;;;;33.73;20.30;;;;;;;15.16;100.00;101974.03;1680024;82;21375;-80
2021/11/06 00:45:01;;;;;;;41.37;20.93;;;;;;;15.14;100.00;101961.69;1691918;83;21237;-80
2021/11/06 00:47:34;;;;;;;38.40;19.87;;;;;;;15.13;100.00;101973.13;1683993;82;21714;-80
2021/11/06 00:50:08;;;;;;;36.53;19.57;;;;;;;15.15;100.00;101984.36;1688880;83;21195;-78
2021/11/06 00:52:41;;;;;;;27.70;16.15;;;;;;;15.18;100.00;101980.20;1683326;83;21311;-82
2021/11/06 00:55:15;;;;;;;37.55;19.90;;;;;;;15.20;100.00;101988.64;1704006;81;21213;-83
2021/11/06 00:57:48;;;;;;;30.82;18.30;;;;;;;15.21;100.00;101980.53;1694945;82;21325;-75
2021/11/06 01:00:21;;;;;;;34.33;19.77;;;;;;;15.19;100.00;101974.89;1745200;80;21324;-82
2021/11/06 01:02:53;;;;;;;34.33;18.60;;;;;;;15.19;100.00;101981.35;1740329;81;21362;-82
2021/11/06 01:05:25;;;;;;;32.93;18.85;;;;;;;15.19;100.00;101980.49;1735609;81;21878;-80
2021/11/06 01:07:59;;;;;;;33.23;19.12;;;;;;;15.18;100.00;101978.27;1695835;82;21196;-82
2021/11/06 01:10:32;;;;;;;39.42;19.25;;;;;;;15.19;100.00;101975.75;1694444;83;21418;-75
2021/11/06 01:13:05;;;;;;;40.05;21.25;;;;;;;15.24;100.00;101966.03;1692328;83;21277;-81
2021/11/06 01:15:38;;;;;;;31.97;18.62;;;;;;;15.28;100.00;101957.97;1680957;83;21481;-78
2021/11/06 01:18:10;;;;;;;35.78;19.45;;;;;;;15.29;100.00;101959.11;1700334;82;21384;-81
2021/11/06 01:20:43;;;;;;;36.25;18.25;;;;;;;15.28;100.00;101955.99;1700989;82;21584;-83
2021/11/06 01:23:16;;;;;;;41.77;20.25;;;;;;;15.32;100.00;101957.20;1705837;81;21274;-80
2021/11/06 01:25:50;;;;;;;38.75;19.80;;;;;;;15.31;100.00;101961.63;1688668;82;21360;-85
2021/11/06 01:28:22;;;;;;;34.00;17.43;;;;;;;15.32;100.00;101960.00;1694976;82;21199;-81
2021/11/06 01:30:55;;;;;;;32.38;17.50;;;;;;;15.31;100.00;101969.48;1700903;82;21289;-84
2021/11/06 01:33:28;;;;;;;33.45;18.10;;;;;;;15.26;100.00;101960.16;1709083;82;21429;-84
2021/11/06 01:36:00;;;;;;;31.68;17.05;;;;;;;15.26;100.00;101959.61;1703745;81;21192;-81
2021/11/06 01:38:34;;;;;;;37.38;20.65;;;;;;;15.26;100.00;101969.41;1693343;82;21189;-84
2021/11/06 01:41:06;;;;;;;34.10;21.02;;;;;;;15.29;100.00;101993.23;1715192;82;21347;-80
2021/11/06 01:43:39;;;;;;;42.17;21.57;;;;;;;15.35;100.00;102007.08;1710563;82;21419;-82
2021/11/06 01:46:12;;;;;;;39.70;18.52;;;;;;;15.40;100.00;102016.09;1727538;80;21370;-82
2021/11/06 01:48:45;;;;;;;35.48;19.10;;;;;;;15.41;100.00;102003.21;1719593;82;21443;-82
2021/11/06 01:51:17;;;;;;;36.93;19.00;;;;;;;15.38;100.00;101995.35;1721771;80;21260;-84
2021/11/06 01:53:50;;;;;;;35.95;18.35;;;;;;;15.37;100.00;102002.06;1721457;80;21966;-85
2021/11/06 01:56:22;;;;;;;34.37;18.83;;;;;;;15.36;100.00;101998.11;1727326;80;21886;-73
2021/11/06 01:58:55;;;;;;;41.55;20.45;;;;;;;15.35;100.00;101992.23;1731610;80;21565;-85
2021/11/06 02:01:27;;;;;;;37.88;20.40;;;;;;;15.36;100.00;102001.77;1700506;82;21775;-82
2021/11/06 02:04:00;;;;;;;37.20;19.92;;;;;;;15.38;100.00;102004.29;1714699;80;21325;-85
2021/11/06 02:06:33;;;;;;;34.88;19.23;;;;;;;15.35;100.00;102002.89;1723683;82;21233;-83
2021/11/06 02:09:05;;;;;;;40.67;20.97;;;;;;;15.36;100.00;102016.30;1722400;80;21202;-86
2021/11/06 02:11:40;;;;;;;34.50;19.02;;;;;;;15.38;100.00;102014.09;1703466;82;21202;-85
2021/11/06 02:14:12;;;;;;;40.03;19.92;;;;;;;15.39;100.00;102011.03;1728058;80;21847;-83
2021/11/06 02:16:46;;;;;;;38.13;19.55;;;;;;;15.36;100.00;102000.38;1724776;80;21191;-86
2021/11/06 02:19:18;;;;;;;34.48;18.57;;;;;;;15.33;100.00;102002.28;1712022;80;21163;-86
2021/11/06 02:21:54;;;;;;;32.08;16.62;;;;;;;15.36;100.00;102012.11;1777577;79;21348;-81
2021/11/06 02:24:29;;;;;;;33.65;18.17;;;;;;;15.42;100.00;102011.07;1782445;80;21147;-79
2021/11/06 02:27:02;;;;;;;44.23;21.33;;;;;;;15.39;100.00;102007.41;1773133;79;21202;-83
2021/11/06 02:29:35;;;;;;;31.75;16.87;;;;;;;15.35;100.00;102018.28;1762505;80;21435;-81
2021/11/06 02:32:13;;;;;;;30.02;17.42;;;;;;;15.34;100.00;102021.33;1772801;79;21217;-79
2021/11/06 02:34:45;;;;;;;41.00;17.80;;;;;;;15.33;100.00;102030.27;1772818;79;21376;-83
2021/11/06 02:37:18;;;;;;;32.50;18.27;;;;;;;15.34;100.00;102040.92;1776807;79;21233;-81
2021/11/06 02:39:50;;;;;;;30.95;17.87;;;;;;;15.32;100.00;102038.38;1721164;80;21338;-81
2021/11/06 02:42:22;;;;;;;43.02;20.05;;;;;;;15.30;100.00;102036.91;1738890;79;21233;-82
2021/11/06 02:44:56;;;;;;;38.45;18.17;;;;;;;15.27;100.00;102036.87;1711730;82;21336;-80
2021/11/06 02:47:28;;;;;;;;;;;;;;;15.29;100.00;102026.28;1781233;79;21427;-74
2021/11/06 02:50:00;;;;;;;42.90;18.87;;;;;;;15.32;100.00;102029.09;1777548;79;20253;-77
2021/11/06 02:52:33;;;;;;;46.20;20.12;;;;;;;15.33;100.00;102026.64;1767462;80;21379;-79
2021/11/06 02:55:06;;;;;;;35.65;18.55;;;;;;;15.31;100.00;102026.00;1716048;82;21351;-80
2021/11/06 02:57:38;;;;;;;40.88;21.05;;;;;;;15.28;100.00;102019.53;1715840;82;21703;-78
2021/11/06 03:00:14;;;;;;;37.45;17.73;;;;;;;15.24;100.00;102018.34;1720167;81;21380;-73
2021/11/06 03:02:49;;;;;;;31.70;16.15;;;;;;;15.24;100.00;102024.80;1725951;80;21384;-79
2021/11/06 03:05:23;;;;;;;30.95;17.12;;;;;;;15.22;100.00;102032.59;1719130;81;21735;-79
2021/11/06 03:07:58;;;;;;;36.58;17.73;;;;;;;15.21;100.00;102029.50;1716101;80;21333;-81
2021/11/06 03:10:31;;;;;;;37.90;18.65;;;;;;;15.26;100.00;102036.58;1775697;79;21238;-78
2021/11/06 03:13:04;;;;;;;34.88;18.02;;;;;;;15.29;100.00;102039.41;1752418;79;21182;-78
2021/11/06 03:15:37;;;;;;;31.87;17.25;;;;;;;15.33;100.00;102041.46;1736469;80;21847;-83
2021/11/06 03:18:10;;;;;;;35.75;19.30;;;;;;;15.37;100.00;102041.79;1778806;78;21258;-76
2021/11/06 03:20:42;;;;;;;30.40;16.20;;;;;;;15.38;100.00;102042.94;1682680;82;21417;-75
2021/11/06 03:23:15;;;;;;;33.45;18.07;;;;;;;15.39;100.00;102034.83;1717439;81;21166;-77
2021/11/06 03:25:47;;;;;;;26.07;15.28;;;;;;;15.46;100.00;102038.28;1676557;82;21349;-76
2021/11/06 03:28:20;;;;;;;29.10;15.63;;;;;;;15.48;100.00;102033.28;1683428;83;21313;-75
2021/11/06 03:30:52;;;;;;;28.20;16.02;;;;;;;15.45;100.00;102035.19;1687248;83;21309;-77
2021/11/06 03:33:25;;;;;;;31.82;17.30;;;;;;;15.41;100.00;102028.41;1714017;80;21246;-78
2021/11/06 03:35:57;;;;;;;35.28;18.55;;;;;;;15.38;100.00;102038.73;1676465;82;21350;-76
2021/11/06 03:38:30;;;;;;;27.93;16.70;;;;;;;15.37;100.00;102056.64;1707453;81;21424;-87
2021/11/06 03:41:03;;;;;;;25.00;15.88;;;;;;;15.37;100.00;102059.98;1687786;83;21185;-84
2021/11/06 03:43:35;;;;;;;27.00;15.05;;;;;;;15.35;100.00;102053.80;1697925;82;21224;-78
2021/11/06 03:46:09;;;;;;;27.32;15.03;;;;;;;15.33;100.00;102061.05;1705299;82;21193;-85
2021/11/06 03:48:41;;;;;;;30.57;17.95;;;;;;;15.31;100.00;102067.98;1727243;81;21183;-82
2021/11/06 03:51:14;;;;;;;25.45;15.80;;;;;;;15.33;100.00;102057.42;1718360;81;21838;-80
2021/11/06 03:53:46;;;;;;;26.85;15.43;;;;;;;15.33;100.00;102059.66;1719890;78;21316;-89
2021/11/06 03:56:19;;;;;;;22.87;13.90;;;;;;;15.31;100.00;102062.38;1754867;80;22267;-83
2021/11/06 03:58:51;;;;;;;31.02;15.75;;;;;;;15.28;100.00;102062.91;1745776;80;21765;-79
2021/11/06 04:01:24;;;;;;;29.75;17.48;;;;;;;15.26;100.00;102072.95;1748004;80;21803;-88
2021/11/06 04:03:56;;;;;;;29.93;17.50;;;;;;;15.27;100.00;102078.84;1741318;79;21373;-88
2021/11/06 04:06:29;;;;;;;28.40;16.82;;;;;;;15.38;100.00;102069.53;1743099;80;21847;-82
2021/11/06 04:09:02;;;;;;;29.67;16.80;;;;;;;15.47;100.00;102069.36;1745840;81;21336;-85
2021/11/06 04:11:36;;;;;;;28.60;16.93;;;;;;;15.47;100.00;102074.96;1770523;79;21563;-86
2021/11/06 04:14:09;;;;;;;34.78;17.45;;;;;;;15.50;100.00;102082.00;1780937;78;21836;-86
2021/11/06 04:16:42;;;;;;;30.70;17.57;;;;;;;15.49;100.00;102085.38;1783232;77;21191;-88
2021/11/06 04:19:14;;;;;;;28.02;17.37;;;;;;;15.55;100.00;102085.73;1769991;78;21325;-80
2021/11/06 04:21:49;;;;;;;28.87;18.05;;;;;;;15.58;100.00;102093.59;1785855;78;21217;-86
2021/11/06 04:24:22;;;;;;;30.72;17.12;;;;;;;15.59;100.00;102088.29;1774735;77;21772;-83
2021/11/06 04:26:55;;;;;;;27.60;16.30;;;;;;;15.63;100.00;102099.84;1752564;80;21439;-83
2021/11/06 04:29:28;;;;;;;22.50;13.95;;;;;;;15.63;100.00;102109.08;1746826;80;21183;-85
2021/11/06 04:32:07;;;;;;;26.95;16.37;;;;;;;15.59;100.00;102119.66;1751018;80;21779;-85
2021/11/06 04:34:41;;;;;;;32.78;18.35;;;;;;;15.55;100.00;102119.34;1785685;77;21279;-86
2021/11/06 04:37:14;;;;;;;35.95;17.67;;;;;;;15.52;100.00;102124.61;1803480;77;21756;-84
2021/11/06 04:39:46;;;;;;;;;;;;;;;15.50;100.00;102126.26;1783272;80;21325;-76
2021/11/06 04:42:18;;;;;;;36.05;18.12;;;;;;;15.52;100.00;102112.84;1785132;79;20261;-79
2021/11/06 04:44:51;;;;;;;29.27;17.90;;;;;;;15.54;100.00;102117.64;1760154;79;21391;-85
2021/11/06 04:47:24;;;;;;;37.03;19.82;;;;;;;15.55;100.00;102117.08;1747233;80;21388;-79
2021/11/06 04:49:58;;;;;;;32.78;20.43;;;;;;;15.57;100.00;102114.88;1783051;78;21250;-79
2021/11/06 04:52:30;;;;;;;35.40;19.95;;;;;;;15.58;100.00;102112.38;1755942;80;21323;-83
2021/11/06 04:55:09;;;;;;;36.47;20.10;;;;;;;15.57;100.00;102131.11;1779268;79;21943;-83
2021/11/06 04:57:44;;;;;;;37.17;19.90;;;;;;;15.54;100.00;102137.25;1740452;79;21758;-82
2021/11/06 05:00:20;;;;;;;36.05;21.12;;;;;;;15.51;100.00;102154.55;1715687;81;21341;-76
2021/11/06 05:02:53;;;;;;;34.67;19.45;;;;;;;15.50;100.00;102161.25;1671945;82;21337;-81
2021/11/06 05:05:25;;;;;;;38.33;19.20;;;;;;;15.50;100.00;102145.86;1685088;82;21341;-75
2021/11/06 05:08:00;;;;;;;30.12;18.65;;;;;;;15.50;100.00;102140.25;1682613;82;21313;-88
2021/11/06 05:10:33;;;;;;;35.10;21.05;;;;;;;15.51;100.00;102153.14;1692631;82;21340;-86
2021/11/06 05:13:06;;;;;;;35.85;21.55;;;;;;;15.52;100.00;102154.84;1694111;82;21233;-76
2021/11/06 05:15:39;;;;;;;37.95;21.40;;;;;;;15.63;100.00;102155.28;1716999;82;21214;-82
2021/11/06 05:18:14;;;;;;;37.65;21.35;;;;;;;15.76;100.00;102166.11;1715833;82;21286;-81
2021/11/06 05:20:46;;;;;;;36.95;19.57;;;;;;;15.86;100.00;102157.86;1714293;81;21340;-78
2021/11/06 05:23:22;;;;;;;34.18;20.02;;;;;;;15.91;100.00;102164.94;1714771;82;21227;-81
2021/11/06 05:25:56;;;;;;;34.00;19.75;;;;;;;15.93;100.00;102161.86;1657703;83;21205;-79
2021/11/06 05:28:30;;;;;;;35.33;20.23;;;;;;;15.97;100.00;102164.44;1660942;84;21343;-77
2021/11/06 05:31:02;;;;;;;33.38;19.00;;;;;;;16.07;100.00;102166.81;1711202;82;21203;-79
2021/11/06 05:33:36;;;;;;;34.00;18.00;;;;;;;16.12;100.00;102171.66;1708732;82;21380;-87
2021/11/06 05:36:08;;;;;;;27.65;16.85;;;;;;;16.12;100.00;102182.30;1715519;81;21199;-86
2021/11/06 05:38:41;;;;;;;30.57;19.17;;;;;;;16.12;100.00;102188.48;1720200;80;21270;-87
2021/11/06 05:41:13;;;;;;;33.53;19.55;;;;;;;16.10;100.00;102186.76;1685611;82;21215;-78
2021/11/06 05:43:47;;;;;;;28.17;17.80;;;;;;;16.11;100.00;102189.02;1701590;82;21886;-82
2021/11/06 05:46:20;;;;;;;31.05;18.65;;;;;;;16.13;100.00;102196.61;1662180;84;21475;-75
2021/11/06 05:48:52;;;;;;;30.20;17.57;;;;;;;16.17;100.00;102193.59;1680372;83;21343;-75
2021/11/06 05:51:26;;;;;;;30.75;17.20;;;;;;;16.24;100.00;102195.63;1675862;83;21218;-78
2021/11/06 05:53:59;;;;;;;26.75;17.25;;;;;;;16.28;100.00;102204.66;1677172;83;21204;-77
2021/11/06 05:56:31;;;;;;;28.50;18.52;;;;;;;16.31;100.00;102204.15;1672657;83;21352;-78
2021/11/06 05:59:10;;;;;;;;;;;;;;;16.33;100.00;102213.71;1670372;83;21252;-76
2021/11/06 06:01:38;;;;;;;33.98;18.92;;;;;;;16.36;100.00;102218.78;1683641;83;20234;-75
2021/11/06 06:04:12;;;;;;;33.48;18.62;;;;;;;16.38;100.00;102216.04;1667078;83;21836;-77
2021/11/06 06:06:48;;;;;;;33.00;18.50;;;;;;;16.41;100.00;102225.89;1657065;84;21844;-78
2021/11/06 06:09:22;;;;;;;33.02;19.87;;;;;;;16.40;100.00;102228.41;1660200;85;21392;-73
2021/11/06 06:11:55;;;;;;;32.00;19.00;;;;;;;16.42;100.00;102237.39;1657138;83;21209;-75
2021/11/06 06:14:27;;;;;;;32.42;19.17;;;;;;;16.45;100.00;102237.72;1656929;83;21465;-83
2021/11/06 06:17:02;;;;;;;38.00;19.48;;;;;;;16.47;100.00;102241.67;1680644;83;21729;-76
2021/11/06 06:19:38;;;;;;;40.33;19.27;;;;;;;16.49;100.00;102246.45;1678136;82;21206;-74
2021/11/06 06:22:11;;;;;;;37.05;21.30;;;;;;;16.54;100.00;102247.37;1679045;83;21866;-74
2021/11/06 06:24:45;;;;;;;34.43;20.95;;;;;;;16.63;100.00;102243.56;1683399;83;21198;-75
2021/11/06 06:27:20;;;;;;;36.38;21.05;;;;;;;16.64;100.00;102242.45;1692896;82;21866;-74
2021/11/06 06:29:53;;;;;;;34.90;21.60;;;;;;;16.63;100.00;102243.56;1682068;83;21344;-74
2021/11/06 06:32:25;;;;;;;40.70;23.00;;;;;;;16.64;100.00;102246.08;1662273;83;21201;-76
2021/11/06 06:34:57;;;;;;;37.48;21.30;;;;;;;16.67;100.00;102254.53;1681815;82;21842;-74
2021/11/06 06:37:30;;;;;;;43.73;24.60;;;;;;;16.70;100.00;102264.67;1664329;83;21186;-75
2021/11/06 06:40:03;;;;;;;44.30;23.10;;;;;;;16.73;100.00;102252.08;1685995;81;21261;-76
2021/11/06 06:42:39;;;;;;;36.35;21.15;;;;;;;16.79;100.00;102265.05;1716442;81;21178;-73
2021/11/06 06:45:11;;;;;;;42.13;21.68;;;;;;;16.79;100.00;102276.28;1684593;83;21423;-76
2021/11/06 06:47:44;;;;;;;38.53;21.70;;;;;;;16.77;100.00;102268.69;1684795;83;21350;-83
2021/11/06 06:50:17;;;;;;;38.83;21.15;;;;;;;16.82;100.00;102274.37;1720440;82;21183;-74
2021/11/06 06:52:51;;;;;;;39.30;20.95;;;;;;;16.86;100.00;102279.72;1707883;81;21233;-73
2021/11/06 06:55:23;;;;;;;38.30;22.58;;;;;;;16.88;100.00;102281.73;1668202;83;21449;-80
2021/11/06 06:57:56;;;;;;;36.80;21.33;;;;;;;16.96;100.00;102281.25;1674530;82;21199;-75
2021/11/06 07:00:28;;;;;;;35.83;20.03;;;;;;;17.03;100.00;102284.70;1675358;83;21258;-75
2021/11/06 07:03:02;;;;;;;34.70;18.57;;;;;;;17.05;100.00;102288.08;1694184;81;21768;-83
2021/11/06 07:05:35;;;;;;;36.90;20.52;;;;;;;17.09;100.00;102289.25;1690031;81;21364;-75
2021/11/06 07:08:07;;;;;;;34.53;19.87;;;;;;;17.13;100.00;102283.41;1632380;84;21227;-78
2021/11/06 07:10:40;;;;;;;35.73;21.70;;;;;;;17.14;99.82;102289.31;1712982;81;21241;-85
2021/11/06 07:13:18;;;;;;;33.15;19.55;;;;;;;17.15;99.68;102288.19;1686776;82;21210;-76
2021/11/06 07:15:46;;;;;;;38.40;19.65;;;;;;;17.18;99.40;102290.48;1692270;81;21444;-75
2021/11/06 07:18:20;;;;;;;36.88;19.45;;;;;;;17.20;99.09;102290.48;1731379;80;21201;-80
2021/11/06 07:20:52;;;;;;;33.13;19.80;;;;;;;17.19;98.55;102287.97;1740771;81;21377;-83
2021/11/06 07:23:25;;;;;;;37.30;20.90;;;;;;;17.19;98.45;102287.97;1745057;80;21758;-76
2021/11/06 07:26:03;;;;;;;50.78;22.67;;;;;;;17.21;98.33;102285.19;1679308;82;21209;-76
2021/11/06 07:28:36;;;;;;;36.75;20.90;;;;;;;17.18;97.80;102289.09;1743672;80;21262;-81
2021/11/06 07:31:09;;;;;;;40.73;21.73;;;;;;;17.16;97.77;102291.28;1708186;81;21247;-81
2021/11/06 07:33:41;;;;;;;36.63;20.75;;;;;;;17.13;97.82;102294.64;1693717;80;21250;-85
2021/11/06 07:36:25;;;;;;;49.30;22.95;;;;;;;17.13;97.95;102308.10;1679639;83;21257;-84
2021/11/06 07:38:58;;;;;;;42.38;22.58;;;;;;;17.15;98.04;102303.09;1698025;81;21395;-77
2021/11/06 07:41:32;;;;;;;44.80;25.70;;;;;;;17.15;98.12;102305.03;1676651;83;21209;-83
2021/11/06 07:44:22;;;;;;;39.48;22.60;;;;;;;17.16;98.08;102305.33;1670583;81;21247;-78
2021/11/06 07:46:55;;;;;;;45.43;20.60;;;;;;;17.16;97.96;102307.59;1697325;81;21448;-84
2021/11/06 07:49:29;;;;;;;36.88;21.02;;;;;;;17.16;97.98;102309.53;1722920;81;21283;-83
2021/11/06 07:52:02;;;;;;;49.10;27.10;;;;;;;17.17;97.74;102322.45;1714330;81;21305;-82
2021/11/06 07:54:42;;;;;;;39.75;22.17;;;;;;;17.12;97.21;102326.64;1656517;80;21860;31
2021/11/06 07:57:14;;;;;;;35.10;18.77;;;;;;;16.96;96.02;102324.75;1712595;82;21367;-74
2021/11/06 07:59:47;;;;;;;31.35;17.27;;;;;;;16.77;94.91;102333.22;1716936;81;21870;-75
2021/11/06 08:02:19;;;;;;;35.05;19.45;;;;;;;16.64;94.99;102342.86;1731723;80;21197;-74
2021/11/06 08:04:51;;;;;;;31.45;18.32;;;;;;;16.55;94.98;102348.64;1695517;82;21347;-75
2021/11/06 08:07:28;;;;;;;30.32;19.85;;;;;;;16.47;94.92;102348.23;1719602;82;21420;-75
2021/11/06 08:10:04;;;;;;;38.02;23.35;;;;;;;16.41;95.01;102354.31;1731578;81;21272;-77
2021/11/06 08:12:39;;;;;;;40.43;23.22;;;;;;;16.40;95.11;102362.43;1725297;80;21354;-75
2021/11/06 08:15:14;;;;;;;38.02;21.40;;;;;;;16.35;94.68;102364.29;1730481;80;21283;-75
2021/11/06 08:17:47;;;;;;;37.25;22.00;;;;;;;16.28;94.66;102370.64;1712987;82;21313;-74
2021/11/06 08:20:27;;;;;;;38.70;21.35;;;;;;;16.23;94.22;102369.16;1744523;80;21269;-78
2021/11/06 08:22:56;;;;;;;36.00;20.25;;;;;;;16.13;94.01;102381.05;1694115;83;21288;-79
2021/11/06 08:25:29;;;;;;;35.92;20.72;;;;;;;16.02;93.47;102391.50;1690041;82;21419;-73
2021/11/06 08:28:01;;;;;;;30.45;17.35;;;;;;;15.92;93.25;102395.52;1695395;82;21332;-74
2021/11/06 08:30:34;;;;;;;29.70;16.70;;;;;;;15.83;92.18;102396.48;1692481;82;21194;-90
2021/11/06 08:33:06;;;;;;;32.88;17.57;;;;;;;15.73;91.65;102403.88;1676401;83;21222;-85
2021/11/06 08:35:42;;;;;;;36.85;17.70;;;;;;;15.64;91.31;102405.40;1716398;81;21355;-84
2021/11/06 08:40:53;;;;;;;35.10;17.30;;;;;;;15.60;90.74;102425.20;1678359;83;21392;-85
2021/11/06 08:43:26;;;;;;;31.62;16.70;;;;;;;15.53;89.91;102428.13;1718583;82;21223;-79
2021/11/06 08:46:02;;;;;;;30.35;17.00;;;;;;;15.45;89.25;102425.75;1711865;82;21197;-72
2021/11/06 08:48:35;;;;;;;35.15;17.52;;;;;;;15.42;89.12;102430.46;1697042;82;21747;-87
2021/11/06 08:51:07;;;;;;;;;;;;;;;15.42;88.67;102431.00;1712725;80;21256;-79
2021/11/06 08:53:45;;;;;;;34.10;16.37;;;;;;;15.37;88.53;102421.95;1708878;82;20246;-81
2021/11/06 08:56:17;;;;;;;45.52;17.35;;;;;;;15.31;87.93;102427.12;1711649;83;21399;-80
2021/11/06 08:58:49;;;;;;;29.10;15.75;;;;;;;15.19;87.00;102440.84;1732338;81;21732;-76
2021/11/06 09:01:22;;;;;;;33.48;14.30;;;;;;;15.19;87.00;102440.84;1714095;82;21404;-82
2021/11/06 09:03:56;;;;;;;24.23;12.50;;;;;;;15.15;86.92;102451.68;1710826;82;21358;-84
2021/11/06 09:06:33;;;;;;;24.52;12.58;;;;;;;15.11;84.71;102446.83;1695311;82;21216;-76
2021/11/06 09:09:14;;;;;;;23.65;9.73;;;;;;;15.05;83.68;102452.02;1695383;83;21300;-83
2021/11/06 09:14:48;;;;;;;17.40;9.38;;;;;;;14.89;81.60;102442.44;1714141;80;21309;-85
2021/11/06 09:17:22;;;;;;;20.90;8.28;;;;;;;14.82;81.35;102447.33;1744762;79;21202;-84
2021/11/06 09:19:55;;;;;;;15.43;7.83;;;;;;;14.76;81.06;102439.91;1686558;83;21372;-85
2021/11/06 09:22:29;;;;;;;14.43;8.20;;;;;;;14.72;80.99;102442.89;1699107;82;21386;-78
2021/11/06 09:25:01;;;;;;;20.20;7.83;;;;;;;14.71;81.34;102455.70;1699732;82;21986;-80
2021/11/06 09:27:35;;;;;;;11.85;6.55;;;;;;;14.65;81.00;102450.55;1676079;83;21424;-82
2021/11/06 09:30:10;;;;;;;13.78;7.40;;;;;;;14.67;81.02;102444.16;1695029;83;21350;-87
2021/11/06 09:32:43;;;;;;;21.97;7.67;;;;;;;14.68;80.43;102445.89;1702535;82;21368;-82
2021/11/06 09:35:15;;;;;;;13.08;7.15;;;;;;;14.67;80.52;102431.58;1658723;83;21262;-86
2021/11/06 09:37:49;;;;;;;19.37;6.50;;;;;;;14.67;80.52;102431.58;1696200;82;21883;-85
2021/11/06 09:40:22;;;;;;;13.32;6.03;;;;;;;14.73;80.90;102443.75;1743032;78;21304;-79
2021/11/06 09:42:54;;;;;;;13.88;6.17;;;;;;;14.76;79.90;102457.23;1738848;81;21258;-78
2021/11/06 09:45:27;;;;;;;14.35;6.97;;;;;;;14.82;79.62;102445.92;1672712;83;21348;-76
2021/11/06 09:48:01;;;;;;;17.05;5.35;;;;;;;14.85;79.74;102451.02;1735612;79;21424;-77
2021/11/06 09:50:43;;;;;;;16.20;7.10;;;;;;;14.85;79.74;102451.02;1702209;80;21363;-77
2021/11/06 09:53:17;;;;;;;15.48;7.25;;;;;;;14.90;79.88;102452.53;1665909;83;21551;-74
2021/11/06 09:55:50;;;;;;;12.63;6.25;;;;;;;14.95;79.80;102454.05;1723201;80;21337;-85
2021/11/06 09:58:23;;;;;;;15.40;6.70;;;;;;;14.99;80.02;102449.67;1660463;83;21231;-82
2021/11/06 10:00:59;;;;;;;15.78;6.78;;;;;;;15.04;79.59;102446.13;1711234;81;21276;-84
2021/11/06 10:03:33;;;;;;;20.32;6.97;;;;;;;15.09;79.64;102454.64;1714021;81;21198;-81
2021/11/06 10:06:07;;;;;;;14.63;5.75;;;;;;;15.15;79.54;102443.28;1722482;80;21267;-83
2021/11/06 10:08:40;;;;;;;15.58;6.17;;;;;;;15.20;79.10;102448.13;1733412;80;21888;-75
2021/11/06 10:11:16;;;;;;;11.83;6.10;;;;;;;15.21;77.90;102436.70;1723390;80;21396;-84
2021/11/06 10:13:54;;;;;;;12.85;5.67;;;;;;;15.20;77.90;102445.33;1725423;80;21371;-82
2021/11/06 10:16:39;;;;;;;14.68;6.62;;;;;;;15.18;77.50;102445.61;1721898;81;21220;-75
2021/11/06 10:19:15;;;;;;;9.13;5.47;;;;;;;15.17;77.85;102439.71;1737226;80;21336;-75
2021/11/06 10:21:52;;;;;;;8.78;5.92;;;;;;;15.21;77.94;102432.50;1738975;80;21352;-76
2021/11/06 10:24:43;;;;;;;19.55;5.62;;;;;;;15.26;77.78;102434.01;1720785;80;21398;-76
2021/11/06 10:27:24;;;;;;;13.78;6.40;;;;;;;15.28;76.83;102436.56;1710425;81;21404;-83
2021/11/06 10:30:19;;;;;;;12.90;4.42;;;;;;;15.26;77.33;102442.41;1729081;80;21429;-81
2021/11/06 10:33:12;;;;;;;12.43;5.75;;;;;;;15.26;76.38;102449.94;1722908;80;21508;-77
2021/11/06 10:35:52;;;;;;;11.45;5.90;;;;;;;15.25;76.62;102454.70;1725274;79;21757;-87
2021/11/06 10:43:37;;;;;;;13.28;5.05;;;;;;;15.18;76.91;102463.80;1708371;81;21388;-79
2021/11/06 10:46:15;;;;;;;12.75;5.17;;;;;;;15.18;76.79;102459.59;1686169;81;21410;-78
2021/11/06 10:48:47;;;;;;;8.60;4.97;;;;;;;15.18;76.31;102460.13;1727522;81;21284;-77
2021/11/06 10:51:21;;;;;;;10.10;5.47;;;;;;;15.15;76.81;102453.08;1714637;81;21336;-77
2021/11/06 10:54:04;;;;;;;8.18;4.35;;;;;;;15.19;77.01;102459.03;1699642;81;21736;-76
2021/11/06 10:56:45;;;;;;;8.00;4.25;;;;;;;15.19;77.01;102459.03;1678954;82;21345;-76
2021/11/06 10:59:21;;;;;;;9.78;4.03;;;;;;;15.21;76.55;102461.05;1679250;82;21259;-76
2021/11/06 11:01:53;;;;;;;14.00;4.60;;;;;;;15.20;76.58;102455.99;1724211;80;22070;-75
2021/11/06 11:04:26;;;;;;;16.40;4.60;;;;;;;15.19;76.92;102449.23;1674460;82;22191;-77
2021/11/06 11:07:00;;;;;;;21.27;5.57;;;;;;;15.19;77.03;102437.50;1677792;83;21401;-76
2021/11/06 11:12:17;;;;;;;8.95;4.97;;;;;;;15.24;77.30;102438.16;1694045;82;22017;-76
2021/11/06 11:14:56;;;;;;;11.75;5.30;;;;;;;15.28;77.07;102441.59;1692611;82;21494;-76
2021/11/06 11:17:45;;;;;;;17.87;5.62;;;;;;;15.31;77.08;102439.72;1680574;82;21274;-78
2021/11/06 11:20:30;;;;;;;10.13;4.92;;;;;;;15.33;76.89;102431.11;1697140;82;21197;-78
2021/11/06 11:23:22;;;;;;;10.18;4.87;;;;;;;15.34;76.89;102439.23;1706214;81;21222;-78
2021/11/06 11:25:58;;;;;;;13.32;5.08;;;;;;;15.32;76.46;102427.45;1682280;81;21340;-78
2021/11/06 11:28:35;;;;;;;17.70;5.70;;;;;;;15.31;76.58;102431.86;1716614;82;21822;-79
2021/11/06 11:31:29;;;;;;;13.05;6.10;;;;;;;15.28;76.45;102426.20;1722202;80;21256;-81
2021/11/06 11:33:59;;;;;;;9.50;4.55;;;;;;;15.25;76.48;102433.72;1671112;83;21291;-78
2021/11/06 11:36:33;;;;;;;15.63;5.03;;;;;;;15.18;76.36;102439.14;1726566;82;21223;-76
2021/11/06 11:39:14;;;;;;;12.85;5.22;;;;;;;15.12;76.47;102451.33;1714142;81;21749;-78
2021/11/06 11:42:18;;;;;;;10.23;5.10;;;;;;;15.05;76.87;102440.30;1724351;81;21881;-79
2021/11/06 11:45:18;;;;;;;18.55;5.37;;;;;;;15.06;76.93;102438.33;1714683;80;21346;-77
2021/11/06 11:48:10;;;;;;;12.93;5.23;;;;;;;15.06;76.99;102444.78;1711836;80;21805;-75
2021/11/06 11:50:44;;;;;;;10.60;5.87;;;;;;;15.03;76.53;102449.46;1709717;82;21462;-78
2021/11/06 11:53:27;;;;;;;11.05;5.78;;;;;;;15.03;76.34;102461.22;1742960;80;21882;-75